createdAt,value
2022-12-27T00:01:30.871Z,14.50
2022-12-27T00:06:26.177Z,10.63
2022-12-27T00:08:53.851Z,9.77
2022-12-27T00:11:23.763Z,14.80
2022-12-27T00:13:50.862Z,12.15
2022-12-27T00:16:19.752Z,9.75
2022-12-27T00:18:47.270Z,11.00
2022-12-27T00:21:14.316Z,14.57
2022-12-27T00:23:45.180Z,11.60
2022-12-27T00:26:14.724Z,10.23
2022-12-27T00:28:41.069Z,14.95
2022-12-27T00:33:36.001Z,11.02
2022-12-27T00:36:05.825Z,9.52
2022-12-27T00:38:34.478Z,13.80
2022-12-27T00:41:01.736Z,11.32
2022-12-27T00:43:28.300Z,11.98
2022-12-27T00:45:55.179Z,10.55
2022-12-27T00:48:21.834Z,13.95
2022-12-27T00:50:48.243Z,11.25
2022-12-27T00:55:45.002Z,9.73
2022-12-27T00:58:11.661Z,14.35
2022-12-27T01:00:38.216Z,15.93
2022-12-27T01:03:04.711Z,12.80
2022-12-27T01:05:31.207Z,13.10
2022-12-27T01:07:57.575Z,13.65
2022-12-27T01:12:50.471Z,14.43
2022-12-27T01:15:16.887Z,12.07
2022-12-27T01:20:09.835Z,13.20
2022-12-27T01:22:36.697Z,15.23
2022-12-27T01:25:03.733Z,13.48
2022-12-27T01:27:30.163Z,12.73
2022-12-27T01:32:22.832Z,13.68
2022-12-27T01:37:16.700Z,15.20
2022-12-27T01:42:17.788Z,14.27
2022-12-27T01:44:51.111Z,9.45
2022-12-27T01:47:29.129Z,12.40
2022-12-27T01:50:23.620Z,13.93
2022-12-27T01:52:52.719Z,14.52
2022-12-27T01:55:31.973Z,12.00
2022-12-27T01:58:13.409Z,12.45
2022-12-27T02:00:43.288Z,13.55
2022-12-27T02:03:11.857Z,13.35
2022-12-27T02:05:38.460Z,11.95
2022-12-27T02:08:23.865Z,12.60
2022-12-27T02:10:50.905Z,10.88
2022-12-27T02:13:19.454Z,10.55
2022-12-27T02:15:45.863Z,12.32
2022-12-27T02:20:59.755Z,10.90
2022-12-27T02:24:10.510Z,10.00
2022-12-27T02:26:51.489Z,13.82
2022-12-27T02:29:27.985Z,8.45
2022-12-27T02:32:07.065Z,9.75
2022-12-27T02:34:42.235Z,11.50
2022-12-27T02:37:12.219Z,7.03
2022-12-27T02:39:43.604Z,10.52
2022-12-27T02:42:11.898Z,11.75
2022-12-27T02:44:38.359Z,13.63
2022-12-27T02:47:18.046Z,12.80
2022-12-27T02:49:44.386Z,10.35
2022-12-27T02:55:37.178Z,10.60
2022-12-27T02:58:21.607Z,8.93
2022-12-27T03:03:23.747Z,9.32
2022-12-27T03:05:59.769Z,9.77
2022-12-27T03:08:33.414Z,12.07
2022-12-27T03:11:02.269Z,12.20
2022-12-27T03:13:44.921Z,9.15
2022-12-27T03:16:20.987Z,13.35
2022-12-27T03:18:57.669Z,10.18
2022-12-27T03:21:30.978Z,11.00
2022-12-27T03:23:59.564Z,9.50
2022-12-27T03:26:28.298Z,10.95
2022-12-27T03:28:57.739Z,11.35
2022-12-27T03:31:29.181Z,14.52
2022-12-27T03:34:01.759Z,12.02
2022-12-27T03:36:28.946Z,12.77
2022-12-27T03:39:03.213Z,9.88
2022-12-27T03:41:38.144Z,13.18
2022-12-27T03:44:04.763Z,13.93
2022-12-27T03:46:34.677Z,12.98
2022-12-27T03:49:04.208Z,10.43
2022-12-27T03:51:36.033Z,12.27
2022-12-27T03:54:12.375Z,13.30
2022-12-27T03:56:39.644Z,15.77
2022-12-27T03:59:07.484Z,14.80
2022-12-27T04:01:33.929Z,12.40
2022-12-27T04:04:00.411Z,15.15
2022-12-27T04:08:53.842Z,13.60
2022-12-27T04:11:20.230Z,11.65
2022-12-27T04:16:12.927Z,11.65
2022-12-27T04:21:05.577Z,15.23
2022-12-27T04:25:58.212Z,11.13
2022-12-27T04:28:24.542Z,14.15
2022-12-27T04:30:50.913Z,15.20
2022-12-27T04:35:43.618Z,9.95
2022-12-27T04:40:36.447Z,16.40
2022-12-27T04:45:29.156Z,13.60
2022-12-27T04:47:55.502Z,12.27
2022-12-27T04:52:51.552Z,14.30
2022-12-27T04:57:47.248Z,13.85
2022-12-27T05:00:15.169Z,12.73
2022-12-27T05:02:41.736Z,11.27
2022-12-27T05:05:09.517Z,14.30
2022-12-27T05:07:37.018Z,15.52
2022-12-27T05:10:05.703Z,15.13
2022-12-27T05:12:32.052Z,14.82
2022-12-27T05:14:58.448Z,17.23
2022-12-27T05:19:51.055Z,14.52
2022-12-27T05:24:43.760Z,15.88
2022-12-27T05:29:36.348Z,14.85
2022-12-27T05:34:33.145Z,14.07
2022-12-27T05:36:59.501Z,13.38
2022-12-27T05:41:52.197Z,14.73
2022-12-27T05:46:45.059Z,15.88
2022-12-27T05:51:37.860Z,10.75
2022-12-27T05:56:30.657Z,14.38
2022-12-27T05:58:57.057Z,18.15
2022-12-27T06:03:49.921Z,14.70
2022-12-27T06:06:16.273Z,13.48
2022-12-27T06:11:14.852Z,13.05
2022-12-27T06:13:42.443Z,18.98
2022-12-27T06:16:12.003Z,14.15
2022-12-27T06:18:39.650Z,16.90
2022-12-27T06:21:18.472Z,20.38
2022-12-27T06:23:45.367Z,17.50
2022-12-27T06:26:21.756Z,18.08
2022-12-27T06:28:49.321Z,16.77
2022-12-27T06:31:16.665Z,16.10
2022-12-27T06:33:43.049Z,16.80
2022-12-27T06:41:09.566Z,16.27
2022-12-27T06:43:36.186Z,20.30
2022-12-27T06:46:05.396Z,17.67
2022-12-27T06:48:32.241Z,16.05
2022-12-27T06:50:59.231Z,15.30
2022-12-27T06:53:25.659Z,14.07
2022-12-27T06:55:52.038Z,13.75
2022-12-27T07:00:44.793Z,15.35
2022-12-27T07:03:11.158Z,13.43
2022-12-27T07:08:04.669Z,13.82
2022-12-27T07:10:31.327Z,15.90
2022-12-27T07:12:58.230Z,13.68
2022-12-27T07:15:24.673Z,16.85
2022-12-27T07:17:51.199Z,16.25
2022-12-27T07:20:17.571Z,16.55
2022-12-27T07:25:10.323Z,16.42
2022-12-27T07:27:37.253Z,16.52
2022-12-27T07:30:05.122Z,17.77
2022-12-27T07:32:31.565Z,15.50
2022-12-27T07:34:57.902Z,18.63
2022-12-27T07:39:50.576Z,13.23
2022-12-27T07:44:43.265Z,19.08
2022-12-27T07:49:36.316Z,13.27
2022-12-27T07:52:02.685Z,21.27
2022-12-27T07:56:55.513Z,19.02
2022-12-27T08:01:48.256Z,19.33
2022-12-27T08:04:14.683Z,14.00
2022-12-27T08:09:07.363Z,18.27
2022-12-27T08:14:00.164Z,15.32
2022-12-27T08:16:26.881Z,18.38
2022-12-27T08:18:53.378Z,18.83
2022-12-27T08:23:46.354Z,18.27
2022-12-27T08:26:12.682Z,21.30
2022-12-27T08:28:39.172Z,17.20
2022-12-27T08:31:08.462Z,14.00
2022-12-27T08:33:35.636Z,19.55
2022-12-27T08:36:28.679Z,17.95
2022-12-27T08:38:54.384Z,18.83
2022-12-27T08:41:21.925Z,25.58
2022-12-27T08:43:48.255Z,18.48
2022-12-27T08:46:14.713Z,18.25
2022-12-27T08:48:41.217Z,17.38
2022-12-27T08:51:12.960Z,16.85
2022-12-27T08:53:40.975Z,14.38
2022-12-27T08:58:33.650Z,14.43
2022-12-27T09:03:33.705Z,14.10
2022-12-27T09:06:10.858Z,14.55
2022-12-27T09:08:37.869Z,20.17
2022-12-27T09:11:18.082Z,17.48
2022-12-27T09:13:45.389Z,15.50
2022-12-27T09:16:14.798Z,15.85
2022-12-27T09:18:42.605Z,12.20
2022-12-27T09:21:11.815Z,11.50
2022-12-27T09:23:39.475Z,17.92
2022-12-27T09:26:11.331Z,13.40
2022-12-27T09:28:38.688Z,15.90
2022-12-27T09:31:05.316Z,17.63
2022-12-27T09:33:32.171Z,13.18
2022-12-27T09:36:03.384Z,15.27
2022-12-27T09:38:29.827Z,12.80
2022-12-27T09:40:59.213Z,17.35
2022-12-27T09:43:54.858Z,17.00
2022-12-27T09:46:28.983Z,17.33
2022-12-27T09:48:56.336Z,15.65
2022-12-27T09:51:34.066Z,15.65
2022-12-27T09:54:14.413Z,15.07
2022-12-27T09:57:10.035Z,14.77
2022-12-27T09:59:42.290Z,13.55
2022-12-27T10:02:23.202Z,15.90
2022-12-27T10:07:53.331Z,14.15
2022-12-27T10:10:43.439Z,14.50
2022-12-27T10:13:24.560Z,14.65
2022-12-27T10:16:05.361Z,16.30
2022-12-27T10:19:04.322Z,16.15
2022-12-27T10:21:36.056Z,19.08
2022-12-27T10:24:23.334Z,15.60
2022-12-27T10:26:51.317Z,18.05
2022-12-27T10:29:23.028Z,15.73
2022-12-27T10:31:49.973Z,17.67
2022-12-27T10:34:18.954Z,19.25
2022-12-27T10:36:45.558Z,14.82
2022-12-27T10:39:31.368Z,16.13
2022-12-27T10:42:08.331Z,16.00
2022-12-27T10:44:34.763Z,18.15
2022-12-27T10:47:01.855Z,16.35
2022-12-27T10:49:30.372Z,19.90
2022-12-27T10:52:06.345Z,14.45
2022-12-27T10:54:33.117Z,19.42
2022-12-27T10:57:37.655Z,18.30
2022-12-27T11:00:20.405Z,16.17
2022-12-27T11:02:57.922Z,20.52
2022-12-27T11:05:30.042Z,19.73
2022-12-27T11:07:56.735Z,20.60
2022-12-27T11:10:29.156Z,20.63
2022-12-27T11:12:57.413Z,19.58
2022-12-27T11:15:25.014Z,20.58
2022-12-27T11:17:57.660Z,19.27
2022-12-27T11:20:30.663Z,19.90
2022-12-27T11:23:05.518Z,18.00
2022-12-27T11:25:33.642Z,19.08
2022-12-27T11:28:18.900Z,16.70
2022-12-27T11:30:55.428Z,17.92
2022-12-27T11:33:40.740Z,17.58
2022-12-27T11:36:09.896Z,14.65
2022-12-27T11:38:38.463Z,17.30
2022-12-27T11:41:26.110Z,19.90
2022-12-27T11:44:01.640Z,18.02
2022-12-27T11:46:46.299Z,17.45
2022-12-27T11:49:21.623Z,20.65
2022-12-27T11:52:07.300Z,18.63
2022-12-27T11:54:55.080Z,19.58
2022-12-27T11:57:34.976Z,16.95
2022-12-27T12:00:19.213Z,18.23
2022-12-27T12:06:07.560Z,19.77
2022-12-27T12:09:14.634Z,19.20
2022-12-27T12:11:55.304Z,18.35
2022-12-27T12:14:46.219Z,17.52
2022-12-27T12:17:35.665Z,16.98
2022-12-27T12:20:31.444Z,19.05
2022-12-27T12:23:13.341Z,15.95
2022-12-27T12:26:06.270Z,18.23
2022-12-27T12:28:59.031Z,19.52
2022-12-27T12:31:57.213Z,21.30
2022-12-27T12:34:32.234Z,17.30
2022-12-27T12:37:26.613Z,15.55
2022-12-27T12:40:17.397Z,15.75
2022-12-27T12:43:12.567Z,16.75
2022-12-27T12:46:00.865Z,16.60
2022-12-27T12:49:03.810Z,17.38
2022-12-27T12:51:43.857Z,15.90
2022-12-27T12:54:25.581Z,15.73
2022-12-27T12:57:10.038Z,14.48
2022-12-27T13:00:08.892Z,14.25
2022-12-27T13:02:53.759Z,14.32
2022-12-27T13:05:45.379Z,14.13
2022-12-27T13:08:25.592Z,13.68
2022-12-27T13:11:02.067Z,13.48
2022-12-27T13:13:53.791Z,14.07
2022-12-27T13:16:29.392Z,12.60
2022-12-27T13:18:58.752Z,12.02
2022-12-27T13:21:56.070Z,12.60
2022-12-27T13:24:38.417Z,12.63
2022-12-27T13:27:16.107Z,12.85
2022-12-27T13:30:13.756Z,12.63
2022-12-27T13:32:53.172Z,11.85
2022-12-27T13:35:49.556Z,13.10
2022-12-27T13:38:30.327Z,12.60
2022-12-27T13:41:16.000Z,13.25
2022-12-27T13:43:42.337Z,10.07
2022-12-27T13:46:16.590Z,12.55
2022-12-27T13:49:01.673Z,9.32
2022-12-27T13:51:42.174Z,13.77
2022-12-27T13:54:22.610Z,10.40
2022-12-27T13:57:21.764Z,11.48
2022-12-27T14:00:01.112Z,9.65
2022-12-27T14:03:06.624Z,8.77
2022-12-27T14:06:16.193Z,9.98
2022-12-27T14:09:01.103Z,10.80
2022-12-27T14:11:54.313Z,10.52
2022-12-27T14:14:23.131Z,13.45
2022-12-27T14:17:15.383Z,15.02
2022-12-27T14:20:00.260Z,15.30
2022-12-27T14:22:52.416Z,15.05
2022-12-27T14:25:32.415Z,11.77
2022-12-27T14:30:53.238Z,9.85
2022-12-27T14:34:12.150Z,7.45
2022-12-27T14:36:47.307Z,9.77
2022-12-27T14:39:38.326Z,13.02
2022-12-27T14:42:22.913Z,9.18
2022-12-27T14:45:21.697Z,10.70
2022-12-27T14:48:07.143Z,11.00
2022-12-27T14:50:57.507Z,12.18
2022-12-27T14:56:45.007Z,8.90
2022-12-27T14:59:30.189Z,10.40
2022-12-27T15:02:11.565Z,10.07
2022-12-27T15:05:04.192Z,10.98
2022-12-27T15:07:36.660Z,11.20
2022-12-27T15:10:15.406Z,8.80
2022-12-27T15:13:14.207Z,10.07
2022-12-27T15:16:15.303Z,7.43
2022-12-27T15:18:48.014Z,10.25
2022-12-27T15:21:29.773Z,11.02
2022-12-27T15:24:14.700Z,10.52
2022-12-27T15:26:54.999Z,10.65
2022-12-27T15:29:38.359Z,12.55
2022-12-27T15:32:21.903Z,13.00
2022-12-27T15:34:56.254Z,10.32
2022-12-27T15:38:18.330Z,12.18
2022-12-27T15:41:08.728Z,12.27
2022-12-27T15:43:56.523Z,7.60
2022-12-27T15:46:48.944Z,10.10
2022-12-27T15:49:57.179Z,10.13
2022-12-27T15:52:43.683Z,8.73
2022-12-27T15:55:19.069Z,11.68
2022-12-27T15:58:01.172Z,9.07
2022-12-27T16:00:33.960Z,11.68
2022-12-27T16:03:03.750Z,9.40
2022-12-27T16:05:43.890Z,9.05
2022-12-27T16:08:10.203Z,10.40
2022-12-27T16:13:08.814Z,10.05
2022-12-27T16:18:30.849Z,13.65
2022-12-27T16:21:11.003Z,9.15
2022-12-27T16:23:48.062Z,12.07
2022-12-27T16:26:27.335Z,10.70
2022-12-27T16:28:56.139Z,9.02
2022-12-27T16:31:26.416Z,7.88
2022-12-27T16:33:54.679Z,10.73
2022-12-27T16:36:22.559Z,12.40
2022-12-27T16:38:56.597Z,8.60
2022-12-27T16:41:41.984Z,10.98
2022-12-27T16:44:23.511Z,10.65
2022-12-27T16:46:55.992Z,10.43
2022-12-27T16:49:31.493Z,10.98
2022-12-27T16:52:25.823Z,10.95
2022-12-27T16:54:52.112Z,11.98
2022-12-27T17:00:05.937Z,10.02
2022-12-27T17:02:47.252Z,9.82
2022-12-27T17:05:16.582Z,8.45
2022-12-27T17:07:48.717Z,8.07
2022-12-27T17:10:27.047Z,8.63
2022-12-27T17:15:21.625Z,10.68
2022-12-27T17:17:53.527Z,8.27
2022-12-27T17:20:20.639Z,8.55
2022-12-27T17:22:47.990Z,7.35
2022-12-27T17:25:19.122Z,10.30
2022-12-27T17:27:51.185Z,9.75
2022-12-27T17:30:19.037Z,9.00
2022-12-27T17:33:12.967Z,11.38
2022-12-27T17:36:20.891Z,11.07
2022-12-27T17:38:57.573Z,9.80
2022-12-27T17:41:38.990Z,9.38
2022-12-27T17:44:15.461Z,10.63
2022-12-27T17:46:57.595Z,8.65
2022-12-27T17:49:31.825Z,7.75
2022-12-27T17:52:00.217Z,12.23
2022-12-27T17:54:27.517Z,7.78
2022-12-27T17:56:59.759Z,9.60
2022-12-27T18:01:59.334Z,9.02
2022-12-27T18:04:38.136Z,9.23
2022-12-27T18:07:07.769Z,9.90
2022-12-27T18:09:43.415Z,8.93
2022-12-27T18:12:15.097Z,8.65
2022-12-27T18:14:41.890Z,10.57
2022-12-27T18:17:28.440Z,9.77
2022-12-27T18:19:56.687Z,9.70
2022-12-27T18:22:23.057Z,9.15
2022-12-27T18:24:49.729Z,6.72
2022-12-27T18:27:23.911Z,8.18
2022-12-27T18:29:50.477Z,13.27
2022-12-27T18:32:18.828Z,7.65
2022-12-27T18:34:57.174Z,8.43
2022-12-27T18:40:01.852Z,8.77
2022-12-27T18:42:33.463Z,6.13
2022-12-27T18:45:05.876Z,7.75
2022-12-27T18:47:39.541Z,8.57
2022-12-27T18:50:15.860Z,9.95
2022-12-27T18:52:42.999Z,6.32
2022-12-27T18:55:20.027Z,12.45
2022-12-27T18:57:47.792Z,10.38
2022-12-27T19:00:19.034Z,7.90
2022-12-27T19:02:45.553Z,8.57
2022-12-27T19:05:24.187Z,8.30
2022-12-27T19:08:09.732Z,8.98
2022-12-27T19:10:36.698Z,5.82
2022-12-27T19:13:04.074Z,10.82
2022-12-27T19:15:39.302Z,9.77
2022-12-27T19:18:19.656Z,8.27
2022-12-27T19:20:58.901Z,7.50
2022-12-27T19:23:28.188Z,7.93
2022-12-27T19:26:05.732Z,9.30
2022-12-27T19:28:33.377Z,8.07
2022-12-27T19:31:20.718Z,6.60
2022-12-27T19:33:54.747Z,10.65
2022-12-27T19:36:33.536Z,7.72
2022-12-27T19:39:00.838Z,8.18
2022-12-27T19:41:27.341Z,10.90
2022-12-27T19:43:54.357Z,8.00
2022-12-27T19:46:21.635Z,6.43
2022-12-27T19:49:15.869Z,8.52
2022-12-27T19:51:37.318Z,7.88
2022-12-27T19:54:10.226Z,9.82
2022-12-27T19:56:36.650Z,9.10
2022-12-27T19:59:03.047Z,6.97
2022-12-27T20:01:29.550Z,9.68
2022-12-27T20:03:56.009Z,7.90
2022-12-27T20:08:54.858Z,6.40
2022-12-27T20:11:22.923Z,8.30
2022-12-27T20:13:49.747Z,6.40
2022-12-27T20:16:18.710Z,9.25
2022-12-27T20:18:45.807Z,6.82
2022-12-27T20:21:15.236Z,8.05
2022-12-27T20:23:41.938Z,6.00
2022-12-27T20:26:08.920Z,6.78
2022-12-27T20:28:35.468Z,7.05
2022-12-27T20:31:09.588Z,11.35
2022-12-27T20:33:36.479Z,9.80
2022-12-27T20:36:03.853Z,11.25
2022-12-27T20:38:30.284Z,6.72
2022-12-27T20:40:56.717Z,8.73
2022-12-27T20:43:23.150Z,9.23
2022-12-27T20:45:49.899Z,7.22
2022-12-27T20:48:16.499Z,6.97
2022-12-27T20:50:42.807Z,11.75
2022-12-27T20:55:35.600Z,7.45
2022-12-27T20:58:02.094Z,7.03
2022-12-27T21:00:28.952Z,7.47
2022-12-27T21:02:55.523Z,9.68
2022-12-27T21:05:21.929Z,10.88
2022-12-27T21:07:48.246Z,6.55
2022-12-27T21:12:40.905Z,9.50
2022-12-27T21:17:34.177Z,10.05
2022-12-27T21:20:00.546Z,9.25
2022-12-27T21:22:27.111Z,7.90
2022-12-27T21:24:53.467Z,9.68
2022-12-27T21:27:19.868Z,6.70
2022-12-27T21:29:46.237Z,9.27
2022-12-27T21:32:12.547Z,7.03
2022-12-27T21:37:10.076Z,8.98
2022-12-27T21:39:39.326Z,5.38
2022-12-27T21:42:05.727Z,7.82
2022-12-27T21:44:32.076Z,8.95
2022-12-27T21:46:58.410Z,7.47
2022-12-27T21:49:24.756Z,7.88
2022-12-27T21:54:17.552Z,7.22
2022-12-27T21:56:43.897Z,11.30
2022-12-27T21:59:10.312Z,11.00
2022-12-27T22:01:50.252Z,8.35
2022-12-27T22:04:17.762Z,9.98
2022-12-27T22:06:47.110Z,8.02
2022-12-27T22:09:14.596Z,8.40
2022-12-27T22:11:40.930Z,7.18
2022-12-27T22:14:07.449Z,9.30
2022-12-27T22:16:36.746Z,7.15
2022-12-27T22:19:07.144Z,8.30
2022-12-27T22:21:34.762Z,8.70
2022-12-27T22:24:02.615Z,7.05
2022-12-27T22:26:32.097Z,9.18
2022-12-27T22:28:58.499Z,7.55
2022-12-27T22:31:27.991Z,8.68
2022-12-27T22:33:54.376Z,9.05
2022-12-27T22:36:23.106Z,8.10
2022-12-27T22:38:50.170Z,5.85
2022-12-27T22:41:24.027Z,6.10
2022-12-27T22:43:52.964Z,7.70
2022-12-27T22:46:20.168Z,6.72
2022-12-27T22:48:54.383Z,6.97
2022-12-27T22:51:23.967Z,8.75
2022-12-27T22:53:50.617Z,7.00
2022-12-27T22:56:20.431Z,6.20
2022-12-27T22:58:47.887Z,7.35
2022-12-27T23:01:20.621Z,11.13
2022-12-27T23:03:47.979Z,8.85
2022-12-27T23:06:14.423Z,9.38
2022-12-27T23:08:42.283Z,7.32
2022-12-27T23:11:21.379Z,9.18
2022-12-27T23:13:53.295Z,9.13
2022-12-27T23:16:19.735Z,9.48
2022-12-27T23:18:46.156Z,6.60
2022-12-27T23:21:20.594Z,10.77
2022-12-27T23:23:50.005Z,7.47
2022-12-27T23:26:18.391Z,10.82
2022-12-27T23:28:46.177Z,8.48
2022-12-27T23:31:13.774Z,7.47
2022-12-27T23:33:42.222Z,8.63
2022-12-27T23:36:09.831Z,7.22
2022-12-27T23:38:36.578Z,7.72
2022-12-27T23:41:06.072Z,7.20
2022-12-27T23:46:27.355Z,6.22
2022-12-27T23:48:54.818Z,8.90
2022-12-27T23:51:22.145Z,9.70
2022-12-27T23:53:48.788Z,8.35
2022-12-27T23:56:16.764Z,7.97
2022-12-27T23:58:43.626Z,6.63
